createdAt,value
2022-10-10T00:09:06.697Z,11.02
2022-10-10T00:19:09.055Z,11.05
2022-10-10T00:29:11.438Z,11.08
2022-10-10T00:39:13.660Z,11.07
2022-10-10T00:49:19.872Z,11.06
2022-10-10T00:59:23.619Z,11.06
2022-10-10T01:09:27.538Z,11.15
2022-10-10T01:20:09.572Z,11.19
2022-10-10T01:30:18.014Z,11.24
2022-10-10T01:40:34.149Z,11.22
2022-10-10T01:51:05.396Z,11.18
2022-10-10T02:01:21.765Z,11.21
2022-10-10T02:11:27.214Z,11.21
2022-10-10T02:21:30.501Z,11.17
2022-10-10T02:31:48.419Z,11.10
2022-10-10T02:41:53.050Z,11.06
2022-10-10T02:51:55.380Z,11.00
2022-10-10T03:01:57.608Z,11.05
2022-10-10T03:11:59.847Z,11.08
2022-10-10T03:22:02.158Z,11.10
2022-10-10T03:32:06.908Z,11.07
2022-10-10T03:42:12.510Z,11.02
2022-10-10T03:52:14.736Z,11.04
2022-10-10T04:02:17.089Z,11.08
2022-10-10T04:12:19.491Z,11.11
2022-10-10T04:22:21.893Z,11.11
2022-10-10T04:32:24.310Z,11.14
2022-10-10T04:42:26.669Z,11.15
2022-10-10T04:52:29.048Z,11.16
2022-10-10T05:02:31.386Z,11.16
2022-10-10T05:12:34.230Z,11.16
2022-10-10T05:22:36.739Z,11.14
2022-10-10T05:32:39.383Z,11.15
2022-10-10T05:42:41.731Z,11.19
2022-10-10T05:52:44.570Z,11.19
2022-10-10T06:02:47.117Z,11.22
2022-10-10T06:12:49.867Z,11.29
2022-10-10T06:22:53.243Z,11.30
2022-10-10T06:32:57.252Z,11.31
2022-10-10T06:43:00.346Z,11.40
2022-10-10T06:53:03.744Z,11.51
2022-10-10T07:03:06.347Z,11.60
2022-10-10T07:13:08.953Z,11.74
2022-10-10T07:23:11.625Z,11.85
2022-10-10T07:33:15.553Z,11.98
2022-10-10T07:43:18.238Z,12.05
2022-10-10T07:53:20.767Z,12.06
2022-10-10T08:03:23.378Z,12.16
2022-10-10T08:13:28.143Z,12.37
2022-10-10T08:23:35.559Z,12.60
2022-10-10T08:33:39.506Z,12.78
2022-10-10T08:43:51.609Z,13.39
2022-10-10T08:53:58.140Z,13.73
2022-10-10T09:04:04.627Z,14.08
2022-10-10T09:14:31.789Z,14.24
2022-10-10T09:25:09.193Z,14.72
2022-10-10T09:35:28.716Z,15.13
2022-10-10T09:45:39.734Z,15.46
2022-10-10T09:55:44.516Z,15.72
2022-10-10T10:06:00.587Z,15.90
2022-10-10T10:16:14.259Z,16.11
2022-10-10T10:26:38.591Z,16.30
2022-10-10T10:36:59.223Z,16.38
2022-10-10T10:47:15.470Z,16.55
2022-10-10T10:58:00.005Z,16.64
2022-10-10T11:08:25.927Z,16.90
2022-10-10T11:18:35.068Z,17.18
2022-10-10T11:28:49.589Z,17.45
2022-10-10T11:39:15.992Z,17.86
2022-10-10T11:49:28.963Z,18.57
2022-10-10T11:59:42.087Z,19.13
2022-10-10T12:09:53.922Z,19.68
2022-10-10T12:20:09.472Z,20.19
2022-10-10T12:30:21.183Z,20.53
2022-10-10T12:40:26.090Z,21.01
2022-10-10T12:50:34.837Z,21.41
2022-10-10T13:00:47.388Z,21.23
2022-10-10T13:11:05.299Z,21.04
2022-10-10T13:21:15.871Z,20.79
2022-10-10T13:31:20.656Z,20.78
2022-10-10T13:41:26.647Z,20.70
2022-10-10T13:51:46.888Z,20.66
2022-10-10T14:02:01.003Z,20.67
2022-10-10T14:12:07.790Z,20.46
2022-10-10T14:22:12.652Z,20.16
2022-10-10T14:32:17.811Z,19.91
2022-10-10T14:42:22.886Z,19.65
2022-10-10T14:52:25.761Z,19.50
2022-10-10T15:02:30.373Z,19.35
2022-10-10T15:12:36.021Z,19.13
2022-10-10T15:22:39.338Z,18.83
2022-10-10T15:32:42.673Z,18.70
2022-10-10T15:42:45.815Z,18.59
2022-10-10T15:52:49.413Z,18.37
2022-10-10T16:02:52.087Z,18.10
2022-10-10T16:12:55.898Z,17.93
2022-10-10T16:22:58.279Z,17.78
2022-10-10T16:33:01.134Z,17.56
2022-10-10T16:43:05.242Z,17.32
2022-10-10T16:53:08.011Z,17.16
2022-10-10T17:03:11.354Z,16.96
2022-10-10T17:13:14.010Z,16.75
2022-10-10T17:23:17.445Z,16.52
2022-10-10T17:33:20.742Z,16.31
2022-10-10T17:43:24.226Z,15.99
2022-10-10T17:53:27.563Z,15.74
2022-10-10T18:03:30.547Z,15.53
2022-10-10T18:13:33.473Z,15.41
2022-10-10T18:23:37.507Z,15.36
2022-10-10T18:33:41.707Z,15.27
2022-10-10T18:43:45.587Z,15.20
2022-10-10T18:53:48.682Z,15.17
2022-10-10T19:03:51.421Z,15.14
2022-10-10T19:13:54.347Z,15.14
2022-10-10T19:23:58.539Z,15.18
2022-10-10T19:34:01.833Z,15.22
2022-10-10T19:44:06.066Z,15.23
2022-10-10T19:54:08.721Z,15.18
2022-10-10T20:04:12.670Z,15.16
2022-10-10T20:14:15.386Z,15.13
2022-10-10T20:24:18.483Z,15.07
2022-10-10T20:34:21.143Z,15.00
2022-10-10T20:44:23.645Z,14.91
2022-10-10T20:54:26.240Z,14.82
2022-10-10T21:04:28.745Z,14.74
2022-10-10T21:14:31.164Z,14.68
2022-10-10T21:24:33.805Z,14.63
2022-10-10T21:34:36.586Z,14.52
2022-10-10T21:44:39.425Z,14.39
2022-10-10T21:54:41.787Z,14.28
2022-10-10T22:04:44.326Z,14.14
2022-10-10T22:14:46.805Z,14.06
2022-10-10T22:24:49.116Z,13.99
2022-10-10T22:34:51.546Z,13.90
2022-10-10T22:44:53.905Z,13.83
2022-10-10T22:54:56.232Z,13.79
2022-10-10T23:05:00.041Z,13.72
2022-10-10T23:15:02.333Z,13.68
2022-10-10T23:25:04.992Z,13.62
2022-10-10T23:35:07.740Z,13.56
2022-10-10T23:45:10.495Z,13.53
2022-10-10T23:55:12.997Z,13.43
